sensor_id;sensor_type;location;lat;lon;timestamp;P1;P2;P0
77411;PMS7003;66484;49.968;19.140;2024-03-06T00:00:57;79.25;63.00;38.25
77411;PMS7003;66484;49.968;19.140;2024-03-06T00:03:30;77.75;59.75;37.25
77411;PMS7003;66484;49.968;19.140;2024-03-06T00:05:38;77.25;62.75;38.50
77411;PMS7003;66484;49.968;19.140;2024-03-06T00:08:07;78.75;59.00;38.00
77411;PMS7003;66484;49.968;19.140;2024-03-06T00:10:16;79.00;66.50;39.25
77411;PMS7003;66484;49.968;19.140;2024-03-06T00:12:37;79.50;66.00;38.50
77411;PMS7003;66484;49.968;19.140;2024-03-06T00:14:59;75.75;59.50;37.50
77411;PMS7003;66484;49.968;19.140;2024-03-06T00:17:28;64.00;48.25;24.25
77411;PMS7003;66484;49.968;19.140;2024-03-06T00:19:57;76.75;59.25;36.25
77411;PMS7003;66484;49.968;19.140;2024-03-06T00:22:05;83.25;66.25;38.25
77411;PMS7003;66484;49.968;19.140;2024-03-06T00:24:38;69.75;56.50;33.00
77411;PMS7003;66484;49.968;19.140;2024-03-06T00:27:07;77.25;61.00;38.00
77411;PMS7003;66484;49.968;19.140;2024-03-06T00:29:15;80.50;63.00;39.00
77411;PMS7003;66484;49.968;19.140;2024-03-06T00:31:41;85.25;67.75;38.50
77411;PMS7003;66484;49.968;19.140;2024-03-06T00:33:51;74.50;57.75;35.50
77411;PMS7003;66484;49.968;19.140;2024-03-06T00:36:20;78.50;57.25;37.00
77411;PMS7003;66484;49.968;19.140;2024-03-06T00:38:30;81.25;61.25;34.25
77411;PMS7003;66484;49.968;19.140;2024-03-06T00:40:52;80.75;66.50;39.25
77411;PMS7003;66484;49.968;19.140;2024-03-06T00:43:01;75.50;58.50;37.25
77411;PMS7003;66484;49.968;19.140;2024-03-06T00:45:29;80.50;63.75;38.00
77411;PMS7003;66484;49.968;19.140;2024-03-06T00:47:37;81.75;67.50;38.00
77411;PMS7003;66484;49.968;19.140;2024-03-06T00:49:59;82.00;63.00;38.75
77411;PMS7003;66484;49.968;19.140;2024-03-06T00:52:13;79.75;63.50;39.25
77411;PMS7003;66484;49.968;19.140;2024-03-06T00:54:35;74.75;58.50;36.25
77411;PMS7003;66484;49.968;19.140;2024-03-06T00:56:43;82.75;62.00;39.00
77411;PMS7003;66484;49.968;19.140;2024-03-06T00:59:12;77.25;60.25;37.00
77411;PMS7003;66484;49.968;19.140;2024-03-06T01:01:41;82.75;64.00;37.00
77411;PMS7003;66484;49.968;19.140;2024-03-06T01:03:50;84.00;62.25;37.75
77411;PMS7003;66484;49.968;19.140;2024-03-06T01:06:12;84.25;68.75;40.75
77411;PMS7003;66484;49.968;19.140;2024-03-06T01:08:23;84.25;70.00;39.50
77411;PMS7003;66484;49.968;19.140;2024-03-06T01:10:53;90.50;77.50;43.00
77411;PMS7003;66484;49.968;19.140;2024-03-06T01:13:22;88.75;75.75;44.00
77411;PMS7003;66484;49.968;19.140;2024-03-06T01:15:51;86.75;73.25;43.25
77411;PMS7003;66484;49.968;19.140;2024-03-06T01:17:59;89.25;76.75;44.75
77411;PMS7003;66484;49.968;19.140;2024-03-06T01:20:28;88.75;72.25;43.00
77411;PMS7003;66484;49.968;19.140;2024-03-06T01:22:36;90.50;80.75;42.25
77411;PMS7003;66484;49.968;19.140;2024-03-06T01:24:58;94.75;76.75;44.50
77411;PMS7003;66484;49.968;19.140;2024-03-06T01:27:08;89.00;72.75;43.00
77411;PMS7003;66484;49.968;19.140;2024-03-06T01:29:37;89.00;74.50;50.25
77411;PMS7003;66484;49.968;19.140;2024-03-06T01:31:45;102.75;91.50;51.50
77411;PMS7003;66484;49.968;19.140;2024-03-06T01:34:14;93.25;75.50;40.75
77411;PMS7003;66484;49.968;19.140;2024-03-06T01:36:22;98.00;85.25;49.25
77411;PMS7003;66484;49.968;19.140;2024-03-06T01:38:44;103.75;88.75;50.75
77411;PMS7003;66484;49.968;19.140;2024-03-06T01:40:54;94.25;76.00;45.00
77411;PMS7003;66484;49.968;19.140;2024-03-06T01:43:22;87.25;77.25;40.50
77411;PMS7003;66484;49.968;19.140;2024-03-06T01:45:53;95.00;80.25;46.50
77411;PMS7003;66484;49.968;19.140;2024-03-06T01:48:02;90.00;73.25;43.50
77411;PMS7003;66484;49.968;19.140;2024-03-06T01:50:24;88.75;75.50;42.75
77411;PMS7003;66484;49.968;19.140;2024-03-06T01:52:33;84.75;69.75;40.00
77411;PMS7003;66484;49.968;19.140;2024-03-06T01:55:02;85.50;71.00;40.75
77411;PMS7003;66484;49.968;19.140;2024-03-06T01:57:32;81.50;62.25;40.25
77411;PMS7003;66484;49.968;19.140;2024-03-06T02:00:02;78.25;61.25;38.25
77411;PMS7003;66484;49.968;19.140;2024-03-06T02:02:35;82.75;64.50;39.25
77411;PMS7003;66484;49.968;19.140;2024-03-06T02:04:43;79.00;63.00;39.00
77411;PMS7003;66484;49.968;19.140;2024-03-06T02:07:12;90.75;67.00;38.00
77411;PMS7003;66484;49.968;19.140;2024-03-06T02:09:22;80.75;61.75;35.50
77411;PMS7003;66484;49.968;19.140;2024-03-06T02:11:45;82.00;60.00;37.25
77411;PMS7003;66484;49.968;19.140;2024-03-06T02:14:07;80.50;60.50;38.25
77411;PMS7003;66484;49.968;19.140;2024-03-06T02:16:36;73.75;57.00;33.00
77411;PMS7003;66484;49.968;19.140;2024-03-06T02:18:53;71.75;58.50;37.00
77411;PMS7003;66484;49.968;19.140;2024-03-06T02:21:19;79.25;59.50;39.00
77411;PMS7003;66484;49.968;19.140;2024-03-06T02:23:31;81.75;65.25;39.50
77411;PMS7003;66484;49.968;19.140;2024-03-06T02:25:52;76.25;57.25;37.50
77411;PMS7003;66484;49.968;19.140;2024-03-06T02:28:01;83.25;63.25;40.00
77411;PMS7003;66484;49.968;19.140;2024-03-06T02:30:29;89.00;81.25;46.00
77411;PMS7003;66484;49.968;19.140;2024-03-06T02:32:58;90.00;72.75;43.25
77411;PMS7003;66484;49.968;19.140;2024-03-06T02:35:07;88.25;75.75;42.75
77411;PMS7003;66484;49.968;19.140;2024-03-06T02:37:29;80.00;59.75;35.50
77411;PMS7003;66484;49.968;19.140;2024-03-06T02:39:38;81.75;69.25;43.00
77411;PMS7003;66484;49.968;19.140;2024-03-06T02:41:59;86.00;64.75;39.00
77411;PMS7003;66484;49.968;19.140;2024-03-06T02:44:08;86.00;68.25;40.00
77411;PMS7003;66484;49.968;19.140;2024-03-06T02:46:30;79.00;62.50;37.50
77411;PMS7003;66484;49.968;19.140;2024-03-06T02:48:38;79.75;61.50;39.00
77411;PMS7003;66484;49.968;19.140;2024-03-06T02:51:07;83.00;64.25;38.75
77411;PMS7003;66484;49.968;19.140;2024-03-06T02:53:36;81.75;63.50;39.00
77411;PMS7003;66484;49.968;19.140;2024-03-06T02:56:05;84.00;62.50;36.25
77411;PMS7003;66484;49.968;19.140;2024-03-06T02:58:34;79.25;60.50;36.25
77411;PMS7003;66484;49.968;19.140;2024-03-06T03:00:44;76.25;60.50;38.25
77411;PMS7003;66484;49.968;19.140;2024-03-06T03:03:06;79.75;61.75;36.75
77411;PMS7003;66484;49.968;19.140;2024-03-06T03:05:15;80.25;60.00;36.25
77411;PMS7003;66484;49.968;19.140;2024-03-06T03:07:36;76.75;59.50;36.25
77411;PMS7003;66484;49.968;19.140;2024-03-06T03:09:45;83.75;60.25;38.25
77411;PMS7003;66484;49.968;19.140;2024-03-06T03:12:14;73.75;59.75;37.50
77411;PMS7003;66484;49.968;19.140;2024-03-06T03:14:43;78.75;60.00;36.75
77411;PMS7003;66484;49.968;19.140;2024-03-06T03:17:12;78.50;57.50;33.00
77411;PMS7003;66484;49.968;19.140;2024-03-06T03:19:43;77.25;59.00;36.00
77411;PMS7003;66484;49.968;19.140;2024-03-06T03:21:51;73.75;58.25;36.00
77411;PMS7003;66484;49.968;19.140;2024-03-06T03:24:13;72.25;52.00;32.25
77411;PMS7003;66484;49.968;19.140;2024-03-06T03:26:22;73.00;56.25;32.50
77411;PMS7003;66484;49.968;19.140;2024-03-06T03:28:44;74.00;55.25;33.25
77411;PMS7003;66484;49.968;19.140;2024-03-06T03:30:53;63.50;49.50;30.50
77411;PMS7003;66484;49.968;19.140;2024-03-06T03:33:15;63.75;51.00;32.50
77411;PMS7003;66484;49.968;19.140;2024-03-06T03:35:23;51.00;39.50;24.25
77411;PMS7003;66484;49.968;19.140;2024-03-06T03:37:46;66.50;50.25;30.25
77411;PMS7003;66484;49.968;19.140;2024-03-06T03:40:01;62.50;48.50;29.25
77411;PMS7003;66484;49.968;19.140;2024-03-06T03:42:25;59.25;49.00;27.50
77411;PMS7003;66484;49.968;19.140;2024-03-06T03:44:40;59.50;47.50;29.50
77411;PMS7003;66484;49.968;19.140;2024-03-06T03:47:02;60.75;47.25;29.00
77411;PMS7003;66484;49.968;19.140;2024-03-06T03:49:31;54.25;43.00;26.75
77411;PMS7003;66484;49.968;19.140;2024-03-06T03:51:40;58.50;46.50;27.75
77411;PMS7003;66484;49.968;19.140;2024-03-06T03:54:02;52.00;44.00;27.00
77411;PMS7003;66484;49.968;19.140;2024-03-06T03:56:11;46.00;39.25;22.00
77411;PMS7003;66484;49.968;19.140;2024-03-06T03:58:33;61.50;47.00;28.00
77411;PMS7003;66484;49.968;19.140;2024-03-06T04:00:42;54.00;44.00;27.25
77411;PMS7003;66484;49.968;19.140;2024-03-06T04:03:14;56.25;43.75;25.75
77411;PMS7003;66484;49.968;19.140;2024-03-06T04:05:23;58.50;49.25;28.25
77411;PMS7003;66484;49.968;19.140;2024-03-06T04:07:53;58.00;43.25;28.00
77411;PMS7003;66484;49.968;19.140;2024-03-06T04:10:22;66.25;46.25;26.75
77411;PMS7003;66484;49.968;19.140;2024-03-06T04:12:30;63.75;49.75;29.00
77411;PMS7003;66484;49.968;19.140;2024-03-06T04:14:53;52.25;42.25;24.50
77411;PMS7003;66484;49.968;19.140;2024-03-06T04:17:08;55.00;41.75;28.00
77411;PMS7003;66484;49.968;19.140;2024-03-06T04:19:23;50.25;33.25;14.50
77411;PMS7003;66484;49.968;19.140;2024-03-06T04:21:41;49.25;41.75;27.00
77411;PMS7003;66484;49.968;19.140;2024-03-06T04:23:50;63.50;47.00;29.00
77411;PMS7003;66484;49.968;19.140;2024-03-06T04:26:06;55.25;41.00;26.75
77411;PMS7003;66484;49.968;19.140;2024-03-06T04:28:14;60.50;49.75;31.25
77411;PMS7003;66484;49.968;19.140;2024-03-06T04:30:29;54.00;44.50;29.50
77411;PMS7003;66484;49.968;19.140;2024-03-06T04:32:51;67.25;48.50;28.25
77411;PMS7003;66484;49.968;19.140;2024-03-06T04:34:59;61.75;49.00;29.25
77411;PMS7003;66484;49.968;19.140;2024-03-06T04:37:21;58.50;45.50;26.50
77411;PMS7003;66484;49.968;19.140;2024-03-06T04:39:36;49.50;42.00;27.75
77411;PMS7003;66484;49.968;19.140;2024-03-06T04:41:51;55.75;42.25;26.50
77411;PMS7003;66484;49.968;19.140;2024-03-06T04:44:06;57.75;45.00;28.75
77411;PMS7003;66484;49.968;19.140;2024-03-06T04:46:28;42.00;34.75;13.00
77411;PMS7003;66484;49.968;19.140;2024-03-06T04:48:43;56.50;42.00;27.25
77411;PMS7003;66484;49.968;19.140;2024-03-06T04:51:05;64.50;47.75;22.50
77411;PMS7003;66484;49.968;19.140;2024-03-06T04:53:13;58.75;48.75;29.00
77411;PMS7003;66484;49.968;19.140;2024-03-06T04:55:35;41.75;35.00;25.75
77411;PMS7003;66484;49.968;19.140;2024-03-06T04:57:51;50.00;37.75;25.25
77411;PMS7003;66484;49.968;19.140;2024-03-06T05:00:07;56.50;40.75;22.75
77411;PMS7003;66484;49.968;19.140;2024-03-06T05:02:23;54.00;42.25;25.00
77411;PMS7003;66484;49.968;19.140;2024-03-06T05:04:59;60.75;47.25;27.00
77411;PMS7003;66484;49.968;19.140;2024-03-06T05:07:35;52.50;43.50;27.25
77411;PMS7003;66484;49.968;19.140;2024-03-06T05:10:01;55.50;46.50;29.75
77411;PMS7003;66484;49.968;19.140;2024-03-06T05:12:34;52.75;43.00;26.50
77411;PMS7003;66484;49.968;19.140;2024-03-06T05:15:13;55.25;42.50;26.50
77411;PMS7003;66484;49.968;19.140;2024-03-06T05:18:07;52.25;43.50;26.75
77411;PMS7003;66484;49.968;19.140;2024-03-06T05:20:46;61.25;43.50;26.50
77411;PMS7003;66484;49.968;19.140;2024-03-06T05:23:26;54.75;44.50;25.75
77411;PMS7003;66484;49.968;19.140;2024-03-06T05:25:54;50.25;41.00;23.50
77411;PMS7003;66484;49.968;19.140;2024-03-06T05:28:35;57.00;46.50;28.25
77411;PMS7003;66484;49.968;19.140;2024-03-06T05:31:17;56.00;47.00;27.00
77411;PMS7003;66484;49.968;19.140;2024-03-06T05:33:51;55.25;41.00;25.50
77411;PMS7003;66484;49.968;19.140;2024-03-06T05:36:23;51.00;36.25;25.00
77411;PMS7003;66484;49.968;19.140;2024-03-06T05:38:55;44.75;39.50;25.00
77411;PMS7003;66484;49.968;19.140;2024-03-06T05:41:27;47.75;38.25;24.50
77411;PMS7003;66484;49.968;19.140;2024-03-06T05:43:59;55.50;40.75;25.00
77411;PMS7003;66484;49.968;19.140;2024-03-06T05:46:31;47.75;38.75;23.50
77411;PMS7003;66484;49.968;19.140;2024-03-06T05:49:11;45.75;40.75;24.25
77411;PMS7003;66484;49.968;19.140;2024-03-06T05:51:37;40.75;37.25;19.00
77411;PMS7003;66484;49.968;19.140;2024-03-06T05:54:03;50.25;37.75;17.75
77411;PMS7003;66484;49.968;19.140;2024-03-06T05:56:35;52.75;39.00;23.00
77411;PMS7003;66484;49.968;19.140;2024-03-06T05:59:07;49.50;41.50;26.00
77411;PMS7003;66484;49.968;19.140;2024-03-06T06:01:23;57.25;46.50;28.25
77411;PMS7003;66484;49.968;19.140;2024-03-06T06:03:38;68.75;52.75;32.00
77411;PMS7003;66484;49.968;19.140;2024-03-06T06:05:53;60.00;49.75;29.25
77411;PMS7003;66484;49.968;19.140;2024-03-06T06:08:08;67.25;54.25;32.25
77411;PMS7003;66484;49.968;19.140;2024-03-06T06:10:30;69.50;50.50;27.50
77411;PMS7003;66484;49.968;19.140;2024-03-06T06:12:38;61.25;48.25;31.75
77411;PMS7003;66484;49.968;19.140;2024-03-06T06:15:00;53.50;38.25;25.00
77411;PMS7003;66484;49.968;19.140;2024-03-06T06:17:15;54.50;45.75;28.00
77411;PMS7003;66484;49.968;19.140;2024-03-06T06:19:33;46.75;40.00;24.50
77411;PMS7003;66484;49.968;19.140;2024-03-06T06:21:48;53.25;45.25;29.00
77411;PMS7003;66484;49.968;19.140;2024-03-06T06:24:10;60.25;46.75;27.00
77411;PMS7003;66484;49.968;19.140;2024-03-06T06:26:25;68.75;50.75;28.75
77411;PMS7003;66484;49.968;19.140;2024-03-06T06:28:41;61.00;50.25;29.00
77411;PMS7003;66484;49.968;19.140;2024-03-06T06:30:57;57.50;45.00;28.75
77411;PMS7003;66484;49.968;19.140;2024-03-06T06:33:12;53.75;44.25;26.25
77411;PMS7003;66484;49.968;19.140;2024-03-06T06:35:27;64.75;50.75;31.75
77411;PMS7003;66484;49.968;19.140;2024-03-06T06:37:42;63.50;49.25;28.50
77411;PMS7003;66484;49.968;19.140;2024-03-06T06:39:57;61.75;50.50;31.50
77411;PMS7003;66484;49.968;19.140;2024-03-06T06:42:21;64.50;51.75;30.00
77411;PMS7003;66484;49.968;19.140;2024-03-06T06:44:36;63.25;48.75;29.25
77411;PMS7003;66484;49.968;19.140;2024-03-06T06:46:58;74.25;53.25;31.50
77411;PMS7003;66484;49.968;19.140;2024-03-06T06:49:06;67.00;49.25;30.00
77411;PMS7003;66484;49.968;19.140;2024-03-06T06:51:28;64.00;48.50;28.25
77411;PMS7003;66484;49.968;19.140;2024-03-06T06:53:39;64.50;52.25;30.25
77411;PMS7003;66484;49.968;19.140;2024-03-06T06:56:04;59.75;49.25;30.25
77411;PMS7003;66484;49.968;19.140;2024-03-06T06:58:19;62.50;49.25;27.50
77411;PMS7003;66484;49.968;19.140;2024-03-06T07:00:43;55.25;44.75;27.00
77411;PMS7003;66484;49.968;19.140;2024-03-06T07:02:51;35.50;24.00;10.25
77411;PMS7003;66484;49.968;19.140;2024-03-06T07:05:13;62.50;50.50;30.50
77411;PMS7003;66484;49.968;19.140;2024-03-06T07:07:22;60.25;45.50;27.25
77411;PMS7003;66484;49.968;19.140;2024-03-06T07:09:44;48.25;38.50;27.75
77411;PMS7003;66484;49.968;19.140;2024-03-06T07:11:59;63.25;50.00;31.25
77411;PMS7003;66484;49.968;19.140;2024-03-06T07:14:22;54.75;41.50;24.25
77411;PMS7003;66484;49.968;19.140;2024-03-06T07:16:51;57.25;42.75;26.75
77411;PMS7003;66484;49.968;19.140;2024-03-06T07:19:00;55.00;45.50;27.00
77411;PMS7003;66484;49.968;19.140;2024-03-06T07:21:21;59.75;44.50;28.75
77411;PMS7003;66484;49.968;19.140;2024-03-06T07:23:29;47.00;41.50;26.75
77411;PMS7003;66484;49.968;19.140;2024-03-06T07:25:58;54.25;45.25;27.50
77411;PMS7003;66484;49.968;19.140;2024-03-06T07:28:08;47.75;40.00;26.25
77411;PMS7003;66484;49.968;19.140;2024-03-06T07:30:30;55.00;43.25;27.50
77411;PMS7003;66484;49.968;19.140;2024-03-06T07:32:39;57.00;45.00;27.25
77411;PMS7003;66484;49.968;19.140;2024-03-06T07:35:08;53.50;44.00;26.25
77411;PMS7003;66484;49.968;19.140;2024-03-06T07:37:17;48.75;36.75;23.25
77411;PMS7003;66484;49.968;19.140;2024-03-06T07:39:46;53.00;43.25;26.25
77411;PMS7003;66484;49.968;19.140;2024-03-06T07:41:57;61.00;47.50;27.00
77411;PMS7003;66484;49.968;19.140;2024-03-06T07:44:19;60.00;46.75;29.50
77411;PMS7003;66484;49.968;19.140;2024-03-06T07:46:34;55.50;45.50;26.00
77411;PMS7003;66484;49.968;19.140;2024-03-06T07:48:50;52.25;43.00;26.50
77411;PMS7003;66484;49.968;19.140;2024-03-06T07:51:06;54.00;45.75;26.00
77411;PMS7003;66484;49.968;19.140;2024-03-06T07:53:22;52.00;43.00;27.00
77411;PMS7003;66484;49.968;19.140;2024-03-06T07:55:37;47.25;38.75;25.50
77411;PMS7003;66484;49.968;19.140;2024-03-06T07:57:52;47.50;39.00;23.25
77411;PMS7003;66484;49.968;19.140;2024-03-06T08:00:07;46.25;37.25;25.00
77411;PMS7003;66484;49.968;19.140;2024-03-06T08:02:23;50.00;40.50;25.00
77411;PMS7003;66484;49.968;19.140;2024-03-06T08:04:38;46.50;40.25;26.50
77411;PMS7003;66484;49.968;19.140;2024-03-06T08:07:02;51.25;40.25;25.75
77411;PMS7003;66484;49.968;19.140;2024-03-06T08:09:11;47.75;37.75;25.00
77411;PMS7003;66484;49.968;19.140;2024-03-06T08:11:34;41.75;37.00;22.50
77411;PMS7003;66484;49.968;19.140;2024-03-06T08:13:43;44.00;36.25;23.50
77411;PMS7003;66484;49.968;19.140;2024-03-06T08:16:12;47.50;38.75;25.00
77411;PMS7003;66484;49.968;19.140;2024-03-06T08:18:23;52.75;43.50;25.50
77411;PMS7003;66484;49.968;19.140;2024-03-06T08:20:46;47.25;38.25;24.25
77411;PMS7003;66484;49.968;19.140;2024-03-06T08:22:55;51.50;42.00;26.50
77411;PMS7003;66484;49.968;19.140;2024-03-06T08:25:17;52.25;43.50;28.00
77411;PMS7003;66484;49.968;19.140;2024-03-06T08:27:25;50.50;42.50;25.00
77411;PMS7003;66484;49.968;19.140;2024-03-06T08:29:47;56.00;41.50;25.75
77411;PMS7003;66484;49.968;19.140;2024-03-06T08:31:57;52.25;40.00;26.00
77411;PMS7003;66484;49.968;19.140;2024-03-06T08:34:26;46.25;39.00;24.25
77411;PMS7003;66484;49.968;19.140;2024-03-06T08:36:55;41.25;34.75;23.00
77411;PMS7003;66484;49.968;19.140;2024-03-06T08:39:03;49.00;40.25;24.75
77411;PMS7003;66484;49.968;19.140;2024-03-06T08:41:35;47.25;35.75;24.00
77411;PMS7003;66484;49.968;19.140;2024-03-06T08:43:57;52.00;40.75;25.00
77411;PMS7003;66484;49.968;19.140;2024-03-06T08:46:12;48.00;39.75;23.75
77411;PMS7003;66484;49.968;19.140;2024-03-06T08:48:27;47.00;37.00;25.50
77411;PMS7003;66484;49.968;19.140;2024-03-06T08:50:42;55.75;44.25;24.00
77411;PMS7003;66484;49.968;19.140;2024-03-06T08:52:59;47.25;40.25;27.00
77411;PMS7003;66484;49.968;19.140;2024-03-06T08:55:16;42.50;37.00;22.00
77411;PMS7003;66484;49.968;19.140;2024-03-06T08:57:25;56.50;39.25;24.75
77411;PMS7003;66484;49.968;19.140;2024-03-06T08:59:47;42.75;36.25;22.00
77411;PMS7003;66484;49.968;19.140;2024-03-06T09:01:56;52.25;39.50;26.50
77411;PMS7003;66484;49.968;19.140;2024-03-06T09:04:18;49.00;40.75;26.00
77411;PMS7003;66484;49.968;19.140;2024-03-06T09:06:27;54.75;41.50;24.75
77411;PMS7003;66484;49.968;19.140;2024-03-06T09:08:56;60.00;46.75;29.50
77411;PMS7003;66484;49.968;19.140;2024-03-06T09:11:27;59.50;42.75;26.50
77411;PMS7003;66484;49.968;19.140;2024-03-06T09:13:36;55.50;44.25;26.00
77411;PMS7003;66484;49.968;19.140;2024-03-06T09:15:58;50.50;42.25;25.50
77411;PMS7003;66484;49.968;19.140;2024-03-06T09:18:07;50.50;37.75;24.00
77411;PMS7003;66484;49.968;19.140;2024-03-06T09:20:31;46.50;38.25;25.00
77411;PMS7003;66484;49.968;19.140;2024-03-06T09:22:40;52.25;40.25;27.50
77411;PMS7003;66484;49.968;19.140;2024-03-06T09:25:02;48.75;40.25;23.75
77411;PMS7003;66484;49.968;19.140;2024-03-06T09:27:12;54.25;44.25;25.50
77411;PMS7003;66484;49.968;19.140;2024-03-06T09:29:34;52.75;41.00;26.25
77411;PMS7003;66484;49.968;19.140;2024-03-06T09:31:49;55.25;41.75;26.25
77411;PMS7003;66484;49.968;19.140;2024-03-06T09:34:11;48.25;39.00;23.75
77411;PMS7003;66484;49.968;19.140;2024-03-06T09:36:20;57.25;46.25;28.25
77411;PMS7003;66484;49.968;19.140;2024-03-06T09:38:42;54.50;44.50;27.00
77411;PMS7003;66484;49.968;19.140;2024-03-06T09:40:53;66.50;48.25;29.00
77411;PMS7003;66484;49.968;19.140;2024-03-06T09:43:18;56.00;44.75;28.25
77411;PMS7003;66484;49.968;19.140;2024-03-06T09:45:26;53.50;40.00;26.50
77411;PMS7003;66484;49.968;19.140;2024-03-06T09:47:55;52.50;42.50;26.75
77411;PMS7003;66484;49.968;19.140;2024-03-06T09:50:24;56.00;44.75;28.00
77411;PMS7003;66484;49.968;19.140;2024-03-06T09:52:35;57.00;45.50;28.25
77411;PMS7003;66484;49.968;19.140;2024-03-06T09:55:01;45.25;36.75;22.50
77411;PMS7003;66484;49.968;19.140;2024-03-06T09:57:11;54.25;40.50;21.25
77411;PMS7003;66484;49.968;19.140;2024-03-06T09:59:33;50.75;40.00;25.75
77411;PMS7003;66484;49.968;19.140;2024-03-06T10:01:54;39.00;36.50;24.25
77411;PMS7003;66484;49.968;19.140;2024-03-06T10:06:27;54.50;42.00;26.75
77411;PMS7003;66484;49.968;19.140;2024-03-06T10:09:02;53.50;41.75;27.00
77411;PMS7003;66484;49.968;19.140;2024-03-06T10:11:12;53.75;44.25;28.50
77411;PMS7003;66484;49.968;19.140;2024-03-06T10:13:46;52.25;42.00;26.00
77411;PMS7003;66484;49.968;19.140;2024-03-06T10:18:19;49.00;42.00;25.00
77411;PMS7003;66484;49.968;19.140;2024-03-06T10:20:28;49.25;41.25;25.50
77411;PMS7003;66484;49.968;19.140;2024-03-06T10:22:50;50.75;41.00;24.75
77411;PMS7003;66484;49.968;19.140;2024-03-06T10:25:06;40.50;33.75;18.00
77411;PMS7003;66484;49.968;19.140;2024-03-06T10:27:28;55.25;43.00;26.50
77411;PMS7003;66484;49.968;19.140;2024-03-06T10:29:36;54.25;41.00;24.50
77411;PMS7003;66484;49.968;19.140;2024-03-06T10:31:58;54.75;42.50;27.75
77411;PMS7003;66484;49.968;19.140;2024-03-06T10:34:13;57.00;43.25;27.00
77411;PMS7003;66484;49.968;19.140;2024-03-06T10:36:31;49.75;41.25;24.50
77411;PMS7003;66484;49.968;19.140;2024-03-06T10:38:46;51.25;41.50;24.75
77411;PMS7003;66484;49.968;19.140;2024-03-06T10:41:05;48.00;40.75;25.00
77411;PMS7003;66484;49.968;19.140;2024-03-06T10:43:26;46.75;39.50;25.00
77411;PMS7003;66484;49.968;19.140;2024-03-06T10:48:05;50.75;41.00;27.00
77411;PMS7003;66484;49.968;19.140;2024-03-06T10:50:29;56.25;44.50;28.25
77411;PMS7003;66484;49.968;19.140;2024-03-06T10:52:38;47.75;37.75;26.00
77411;PMS7003;66484;49.968;19.140;2024-03-06T10:55:02;55.25;43.75;27.75
77411;PMS7003;66484;49.968;19.140;2024-03-06T10:57:12;57.25;44.25;28.25
77411;PMS7003;66484;49.968;19.140;2024-03-06T10:59:40;59.50;47.25;29.00
77411;PMS7003;66484;49.968;19.140;2024-03-06T11:01:50;60.75;47.25;29.50
77411;PMS7003;66484;49.968;19.140;2024-03-06T11:04:15;46.00;38.00;25.00
77411;PMS7003;66484;49.968;19.140;2024-03-06T11:06:30;57.00;42.25;28.25
77411;PMS7003;66484;49.968;19.140;2024-03-06T11:08:46;54.75;44.50;28.00
77411;PMS7003;66484;49.968;19.140;2024-03-06T11:11:18;53.50;43.50;27.75
77411;PMS7003;66484;49.968;19.140;2024-03-06T11:13:41;56.50;45.25;27.50
77411;PMS7003;66484;49.968;19.140;2024-03-06T11:16:03;55.75;44.25;29.00
77411;PMS7003;66484;49.968;19.140;2024-03-06T11:23:33;61.00;46.00;28.75
77411;PMS7003;66484;49.968;19.140;2024-03-06T11:28:36;55.75;45.50;29.00
77411;PMS7003;66484;49.968;19.140;2024-03-06T11:30:48;59.50;47.00;30.00
77411;PMS7003;66484;49.968;19.140;2024-03-06T11:33:23;63.00;48.25;30.75
77411;PMS7003;66484;49.968;19.140;2024-03-06T11:38:28;58.00;46.75;27.00
77411;PMS7003;66484;49.968;19.140;2024-03-06T11:40:57;56.00;44.75;28.00
77411;PMS7003;66484;49.968;19.140;2024-03-06T11:43:22;58.00;43.00;27.50
77411;PMS7003;66484;49.968;19.140;2024-03-06T11:45:47;53.75;42.75;26.00
77411;PMS7003;66484;49.968;19.140;2024-03-06T11:48:02;45.25;38.25;23.50
77411;PMS7003;66484;49.968;19.140;2024-03-06T11:50:25;49.50;38.25;23.75
77411;PMS7003;66484;49.968;19.140;2024-03-06T11:52:41;48.75;40.75;26.25
77411;PMS7003;66484;49.968;19.140;2024-03-06T11:54:56;44.50;37.50;23.25
77411;PMS7003;66484;49.968;19.140;2024-03-06T11:57:11;51.00;39.00;24.75
77411;PMS7003;66484;49.968;19.140;2024-03-06T11:59:36;51.25;40.50;25.75
77411;PMS7003;66484;49.968;19.140;2024-03-06T12:01:48;50.50;41.75;26.00
77411;PMS7003;66484;49.968;19.140;2024-03-06T12:04:18;49.25;42.50;27.25
77411;PMS7003;66484;49.968;19.140;2024-03-06T12:06:49;49.25;41.25;25.00
77411;PMS7003;66484;49.968;19.140;2024-03-06T12:08:58;54.50;42.75;27.75
77411;PMS7003;66484;49.968;19.140;2024-03-06T12:11:20;50.75;41.75;23.75
77411;PMS7003;66484;49.968;19.140;2024-03-06T12:13:30;51.00;42.00;26.75
77411;PMS7003;66484;49.968;19.140;2024-03-06T12:15:59;56.25;44.00;27.50
77411;PMS7003;66484;49.968;19.140;2024-03-06T12:18:32;55.00;44.75;29.50
77411;PMS7003;66484;49.968;19.140;2024-03-06T12:20:42;56.50;46.25;27.75
77411;PMS7003;66484;49.968;19.140;2024-03-06T12:23:05;57.75;44.25;28.25
77411;PMS7003;66484;49.968;19.140;2024-03-06T12:25:20;54.00;44.00;26.00
77411;PMS7003;66484;49.968;19.140;2024-03-06T12:27:45;56.00;45.00;28.00
77411;PMS7003;66484;49.968;19.140;2024-03-06T12:29:53;54.25;43.25;27.50
77411;PMS7003;66484;49.968;19.140;2024-03-06T12:32:16;55.00;44.25;29.00
77411;PMS7003;66484;49.968;19.140;2024-03-06T12:34:26;57.75;46.25;28.00
77411;PMS7003;66484;49.968;19.140;2024-03-06T12:36:55;48.50;39.00;23.50
77411;PMS7003;66484;49.968;19.140;2024-03-06T12:39:24;48.00;35.00;21.75
77411;PMS7003;66484;49.968;19.140;2024-03-06T12:41:32;47.50;39.25;25.00
77411;PMS7003;66484;49.968;19.140;2024-03-06T12:43:55;53.75;43.75;27.25
77411;PMS7003;66484;49.968;19.140;2024-03-06T12:46:04;51.50;38.00;25.25
77411;PMS7003;66484;49.968;19.140;2024-03-06T12:48:26;55.25;46.50;27.25
77411;PMS7003;66484;49.968;19.140;2024-03-06T12:50:37;58.50;46.25;27.00
77411;PMS7003;66484;49.968;19.140;2024-03-06T12:53:08;60.25;48.25;29.00
77411;PMS7003;66484;49.968;19.140;2024-03-06T12:55:37;46.75;36.25;26.25
77411;PMS7003;66484;49.968;19.140;2024-03-06T12:57:45;55.00;43.75;28.00
77411;PMS7003;66484;49.968;19.140;2024-03-06T13:00:07;58.00;45.75;28.25
77411;PMS7003;66484;49.968;19.140;2024-03-06T13:02:24;47.50;41.50;26.75
77411;PMS7003;66484;49.968;19.140;2024-03-06T13:04:46;52.00;41.75;26.00
77411;PMS7003;66484;49.968;19.140;2024-03-06T13:06:54;54.00;44.25;27.50
77411;PMS7003;66484;49.968;19.140;2024-03-06T13:09:18;56.50;45.00;28.00